createdAt,value
2018-07-09T17:04:22.294Z,1.9
2018-07-09T17:04:38.716Z,1.8
2018-07-09T17:04:55.165Z,1.9
2018-07-09T17:05:11.592Z,2
2018-07-09T17:05:28.016Z,2
2018-07-09T17:05:44.439Z,1.9
2018-07-09T17:06:00.862Z,1.9
2018-07-09T17:06:17.285Z,2
2018-07-09T17:06:33.715Z,2
2018-07-09T17:06:50.139Z,2
2018-07-09T17:07:06.566Z,2.2
2018-07-09T17:07:22.993Z,2.2
2018-07-09T17:07:39.420Z,2.1
2018-07-09T17:07:55.845Z,2.4
2018-07-09T17:08:12.286Z,2.4
2018-07-09T17:08:28.719Z,2.1
2018-07-09T17:08:45.157Z,2
2018-07-09T17:09:01.590Z,2.2
2018-07-09T17:09:18.018Z,2.2
2018-07-09T17:09:34.502Z,2.2
2018-07-09T17:09:50.890Z,2.2
2018-07-09T17:10:07.312Z,2.3
2018-07-09T17:10:23.737Z,2.3
2018-07-09T17:10:40.185Z,2.3
2018-07-09T17:10:56.611Z,2.1
2018-07-09T17:11:13.058Z,2.1
2018-07-09T17:11:29.484Z,2.2
2018-07-09T17:11:45.909Z,2.3
2018-07-09T17:12:02.334Z,2.1
2018-07-09T17:12:19.816Z,2.1
2018-07-09T17:12:36.242Z,2
2018-07-09T17:12:52.667Z,2.3
2018-07-09T17:13:09.079Z,2.3
2018-07-09T17:13:25.502Z,2.3
2018-07-09T17:13:41.925Z,2.1
2018-07-09T17:13:58.362Z,2
2018-07-09T17:14:14.792Z,2.2
2018-07-09T17:14:31.238Z,2.2
2018-07-09T17:14:47.656Z,2.3
2018-07-09T17:15:04.085Z,2.2
2018-07-09T17:15:20.513Z,2.2
2018-07-09T17:15:36.943Z,2.2
2018-07-09T17:15:53.375Z,2.2
2018-07-09T17:16:09.819Z,2.2
2018-07-09T17:16:26.245Z,2.1
2018-07-09T17:16:42.667Z,2.1
2018-07-09T17:16:59.094Z,2.2
2018-07-09T17:17:15.507Z,2.2
2018-07-09T17:17:31.943Z,2
2018-07-09T17:17:48.371Z,2.2
2018-07-09T17:18:04.799Z,2.2
2018-07-09T17:18:21.222Z,2.1
2018-07-09T17:18:37.645Z,2.6
2018-07-09T17:18:54.078Z,2.8
2018-07-09T17:19:10.525Z,2.4
2018-07-09T17:19:26.929Z,2.4
2018-07-09T17:19:43.407Z,2.1
2018-07-09T17:19:59.832Z,2.1
2018-07-09T17:20:16.254Z,2.3
2018-07-09T17:20:32.703Z,2.2
2018-07-09T17:20:49.131Z,2.3
2018-07-09T17:21:05.556Z,2.2
2018-07-09T17:21:21.981Z,2.2
2018-07-09T17:21:38.405Z,2.2
2018-07-09T17:21:54.831Z,2.2
2018-07-09T17:22:11.255Z,2.3
2018-07-09T17:22:27.679Z,2.2
2018-07-09T17:22:44.104Z,2.2
2018-07-09T17:23:00.529Z,1.9
2018-07-09T17:23:16.955Z,2.1
2018-07-09T17:23:33.551Z,2
2018-07-09T17:23:49.985Z,2
2018-07-09T17:24:06.415Z,2.2
2018-07-09T17:24:22.844Z,2.1
2018-07-09T17:24:39.289Z,2.1
2018-07-09T17:24:55.717Z,2.1
2018-07-09T17:25:12.143Z,2.1
2018-07-09T17:25:28.567Z,2.2
2018-07-09T17:25:44.999Z,2.2
2018-07-09T17:26:01.424Z,2.1
2018-07-09T17:26:17.865Z,2.3
2018-07-09T17:26:34.435Z,2
2018-07-09T17:26:50.889Z,2
2018-07-09T17:27:07.387Z,2.2
2018-07-09T17:27:23.696Z,2.1
2018-07-09T17:27:40.105Z,2.2
2018-07-09T17:27:56.555Z,2.3
2018-07-09T17:28:13.007Z,2.3
2018-07-09T17:28:29.476Z,2.2
2018-07-09T17:28:45.924Z,2
2018-07-09T17:29:02.448Z,1.9
2018-07-09T17:29:18.915Z,2
2018-07-09T17:29:35.375Z,2.1
2018-07-09T17:29:51.821Z,2.2
2018-07-09T17:30:08.249Z,2.3
2018-07-09T17:30:25.680Z,2.1
2018-07-09T17:30:42.126Z,2.2
2018-07-09T17:30:58.555Z,2.2
2018-07-09T17:31:15.004Z,2.2
2018-07-09T17:31:31.429Z,2.5
2018-07-09T17:31:47.855Z,2.3
2018-07-09T17:32:04.305Z,2.1
2018-07-09T17:32:20.786Z,2.1
2018-07-09T17:32:37.245Z,2.1
2018-07-09T17:32:53.590Z,2
2018-07-09T17:33:10.022Z,2
2018-07-09T17:33:26.446Z,2.3
2018-07-09T17:33:42.883Z,2.4
2018-07-09T17:33:59.312Z,2.3
2018-07-09T17:34:15.738Z,2.1
2018-07-09T17:34:32.166Z,2
2018-07-09T17:34:48.654Z,2.1
2018-07-09T17:35:05.062Z,2
2018-07-09T17:35:21.492Z,1.9
2018-07-09T17:35:37.914Z,1.9
2018-07-09T17:35:54.348Z,1.9
2018-07-09T17:36:10.778Z,1.9
2018-07-09T17:36:27.197Z,2
2018-07-09T17:36:43.626Z,1.9
2018-07-09T17:37:00.063Z,1.9
2018-07-09T17:37:16.498Z,2.1
2018-07-09T17:37:32.923Z,2
2018-07-09T17:37:49.389Z,1.9
2018-07-09T17:38:05.774Z,1.9
2018-07-09T17:38:22.204Z,2.1
2018-07-09T17:38:38.635Z,1.9
2018-07-09T17:38:55.094Z,1.8
2018-07-09T17:39:11.487Z,2
2018-07-09T17:39:27.916Z,2.1
2018-07-09T17:39:44.345Z,2.1
2018-07-09T17:40:00.783Z,2.1
2018-07-09T17:40:17.209Z,2
2018-07-09T17:40:33.641Z,2.3
2018-07-09T17:40:50.100Z,2.4
2018-07-09T17:41:06.533Z,2.1
2018-07-09T17:41:22.962Z,2.1
2018-07-09T17:41:39.394Z,2.2
2018-07-09T17:41:55.827Z,2
2018-07-09T17:42:12.263Z,2
2018-07-09T17:42:28.689Z,2.1
2018-07-09T17:42:45.129Z,2.2
2018-07-09T17:43:01.558Z,2.2
2018-07-09T17:43:17.994Z,2.1
2018-07-09T17:43:34.425Z,2
2018-07-09T17:43:50.985Z,2
2018-07-09T17:44:07.360Z,1.9
2018-07-09T17:44:23.693Z,1.9
2018-07-09T17:44:40.126Z,2.1
2018-07-09T17:44:56.571Z,2.1
2018-07-09T17:45:13.000Z,2.1
2018-07-09T17:45:29.428Z,2.1
2018-07-09T17:45:45.853Z,2.2
2018-07-09T17:46:02.295Z,2.1
2018-07-09T17:46:18.737Z,2.2
2018-07-09T17:46:36.160Z,2.1
2018-07-09T17:46:52.590Z,2.1
2018-07-09T17:47:09.025Z,2.1
2018-07-09T17:47:25.452Z,2
2018-07-09T17:47:41.903Z,2.1
2018-07-09T17:47:58.322Z,2.1
2018-07-09T17:48:14.748Z,2
2018-07-09T17:48:31.188Z,2.1
2018-07-09T17:48:47.600Z,2
2018-07-09T17:49:04.030Z,2
2018-07-09T17:49:20.462Z,1.9
2018-07-09T17:49:36.887Z,2
2018-07-09T17:49:53.361Z,2.1
2018-07-09T17:50:09.851Z,2.2
2018-07-09T17:50:26.183Z,2.1
2018-07-09T17:50:42.609Z,2.1
2018-07-09T17:50:59.056Z,2.2
2018-07-09T17:51:15.486Z,2.1
2018-07-09T17:51:31.920Z,2
2018-07-09T17:51:48.347Z,2
2018-07-09T17:52:04.771Z,2.1
2018-07-09T17:52:21.198Z,2.2
2018-07-09T17:52:37.626Z,2.2
2018-07-09T17:52:54.050Z,2
2018-07-09T17:53:10.478Z,2.2
2018-07-09T17:53:26.906Z,2.3
2018-07-09T17:53:43.334Z,2.3
2018-07-09T17:53:59.760Z,2.1
2018-07-09T17:54:16.186Z,2.1
2018-07-09T17:54:33.600Z,2
2018-07-09T17:54:50.037Z,1.8
2018-07-09T17:55:06.482Z,2
2018-07-09T17:55:22.908Z,2.1
2018-07-09T17:55:39.336Z,2.1
2018-07-09T17:55:55.765Z,2.2
2018-07-09T17:56:12.197Z,2
2018-07-09T17:56:28.621Z,2
2018-07-09T17:56:45.049Z,1.9
2018-07-09T17:57:01.490Z,2.1
2018-07-09T17:57:17.919Z,2.2
2018-07-09T17:57:34.352Z,2.1
2018-07-09T17:57:50.778Z,2.2
2018-07-09T17:58:07.204Z,2.1
2018-07-09T17:58:23.634Z,1.7
2018-07-09T17:58:40.068Z,1.6
2018-07-09T17:58:56.505Z,1.8
2018-07-09T17:59:12.931Z,1.9
2018-07-09T17:59:29.364Z,1.9
2018-07-09T17:59:45.792Z,1.9
2018-07-09T18:00:02.220Z,1.9
2018-07-09T18:00:18.670Z,1.9
2018-07-09T18:00:35.088Z,1.9
2018-07-09T18:00:51.515Z,1.8
2018-07-09T18:01:08.932Z,1.9
2018-07-09T18:01:25.374Z,1.9
2018-07-09T18:01:41.792Z,1.7
2018-07-09T18:01:58.217Z,1.7
2018-07-09T18:02:14.644Z,1.8
2018-07-09T18:02:31.069Z,2.1
2018-07-09T18:02:47.552Z,1.9
2018-07-09T18:03:03.925Z,1.7
2018-07-09T18:03:20.352Z,1.7
2018-07-09T18:03:36.780Z,1.9
2018-07-09T18:03:53.210Z,2
2018-07-09T18:04:09.640Z,2.1
2018-07-09T18:04:26.068Z,1.9
2018-07-09T18:04:42.492Z,1.8
2018-07-09T18:04:58.924Z,1.9
2018-07-09T18:05:15.367Z,1.8
2018-07-09T18:05:32.787Z,2
2018-07-09T18:05:49.217Z,2
2018-07-09T18:06:05.650Z,1.8
2018-07-09T18:06:22.075Z,1.9
2018-07-09T18:06:38.502Z,1.9
2018-07-09T18:06:54.931Z,2
2018-07-09T18:07:11.358Z,2
2018-07-09T18:07:27.795Z,2
2018-07-09T18:07:44.217Z,2
2018-07-09T18:08:00.650Z,2
2018-07-09T18:08:17.068Z,2.1
2018-07-09T18:08:33.497Z,2.1
2018-07-09T18:08:49.931Z,1.9
2018-07-09T18:09:06.351Z,1.9
2018-07-09T18:09:22.782Z,1.8
2018-07-09T18:09:39.208Z,1.9
2018-07-09T18:09:55.645Z,2.2
2018-07-09T18:10:12.111Z,2.1
2018-07-09T18:10:28.532Z,2.2
2018-07-09T18:10:44.946Z,2
2018-07-09T18:11:01.370Z,1.9
2018-07-09T18:11:17.800Z,2.3
2018-07-09T18:11:34.229Z,2.4
2018-07-09T18:11:50.654Z,2.2
2018-07-09T18:12:07.074Z,2
2018-07-09T18:12:23.499Z,1.8
2018-07-09T18:12:39.929Z,2
2018-07-09T18:12:56.355Z,2
2018-07-09T18:13:12.788Z,2.2
2018-07-09T18:13:29.252Z,2
2018-07-09T18:13:45.652Z,1.8
2018-07-09T18:14:02.124Z,1.8
2018-07-09T18:14:18.504Z,1.7
2018-07-09T18:14:34.927Z,2
2018-07-09T18:14:51.357Z,1.9
2018-07-09T18:15:07.781Z,1.8
2018-07-09T18:15:24.227Z,1.9
2018-07-09T18:15:40.681Z,2
2018-07-09T18:15:57.076Z,2
2018-07-09T18:16:13.512Z,1.8
2018-07-09T18:16:29.931Z,1.7
2018-07-09T18:16:46.354Z,1.8
2018-07-09T18:17:02.792Z,1.8
2018-07-09T18:17:19.208Z,2
2018-07-09T18:17:35.635Z,2
2018-07-09T18:17:52.059Z,2.1
2018-07-09T18:18:08.484Z,1.9
2018-07-09T18:18:24.911Z,1.8
2018-07-09T18:18:41.337Z,2
2018-07-09T18:18:57.793Z,2
2018-07-09T18:19:14.193Z,1.9
2018-07-09T18:19:30.624Z,1.8
2018-07-09T18:19:47.124Z,1.9
2018-07-09T18:20:03.472Z,1.8
2018-07-09T18:20:19.912Z,1.9
2018-07-09T18:20:36.338Z,2
2018-07-09T18:20:52.767Z,1.8
2018-07-09T18:21:09.197Z,1.7
2018-07-09T18:21:25.664Z,1.8
2018-07-09T18:21:42.048Z,1.7
2018-07-09T18:21:58.463Z,1.7
2018-07-09T18:22:14.898Z,1.7
2018-07-09T18:22:31.321Z,1.7
2018-07-09T18:22:47.749Z,1.8
2018-07-09T18:23:05.171Z,1.8
2018-07-09T18:23:21.619Z,1.8
2018-07-09T18:23:38.049Z,2
2018-07-09T18:23:54.478Z,1.9
2018-07-09T18:24:10.904Z,1.8
2018-07-09T18:24:27.335Z,1.9
2018-07-09T18:24:43.761Z,2
2018-07-09T18:25:00.218Z,2.2
2018-07-09T18:25:16.681Z,2.2
2018-07-09T18:25:33.197Z,2
2018-07-09T18:25:49.540Z,2
2018-07-09T18:26:05.968Z,1.9
2018-07-09T18:26:23.385Z,1.9
2018-07-09T18:26:39.821Z,1.9
2018-07-09T18:26:56.251Z,2
2018-07-09T18:27:12.684Z,2
2018-07-09T18:27:29.109Z,2
2018-07-09T18:27:45.568Z,1.9
2018-07-09T18:28:01.995Z,1.7
2018-07-09T18:28:18.426Z,1.7
2018-07-09T18:28:34.889Z,1.8
2018-07-09T18:28:51.304Z,1.8
2018-07-09T18:29:07.746Z,1.6
2018-07-09T18:29:24.151Z,1.7
2018-07-09T18:29:40.579Z,1.8
2018-07-09T18:29:57.023Z,1.9
2018-07-09T18:30:13.476Z,1.8
2018-07-09T18:30:29.961Z,1.8
2018-07-09T18:30:46.458Z,1.8
2018-07-09T18:31:02.898Z,2
2018-07-09T18:31:19.334Z,1.7
2018-07-09T18:31:35.766Z,1.8
2018-07-09T18:31:52.201Z,1.8
2018-07-09T18:32:08.623Z,1.7
2018-07-09T18:32:25.062Z,1.7
2018-07-09T18:32:41.582Z,1.8
2018-07-09T18:32:57.990Z,1.7
2018-07-09T18:33:14.348Z,1.8
2018-07-09T18:33:30.773Z,1.7
2018-07-09T18:33:47.200Z,1.7
2018-07-09T18:34:03.652Z,1.8
2018-07-09T18:34:20.078Z,1.8
2018-07-09T18:34:36.516Z,1.8
2018-07-09T18:34:52.946Z,1.8
2018-07-09T18:35:09.390Z,1.7
2018-07-09T18:35:26.167Z,1.6
2018-07-09T18:35:42.574Z,1.7
2018-07-09T18:35:58.935Z,1.7
2018-07-09T18:36:15.364Z,1.7
2018-07-09T18:36:31.793Z,1.7
2018-07-09T18:36:48.224Z,1.8
2018-07-09T18:37:04.651Z,1.7
2018-07-09T18:37:21.078Z,1.7
2018-07-09T18:37:37.507Z,1.7
2018-07-09T18:37:53.932Z,1.8
2018-07-09T18:38:10.367Z,1.9
2018-07-09T18:38:26.856Z,1.9
2018-07-09T18:38:43.286Z,1.8
2018-07-09T18:38:59.676Z,1.7
2018-07-09T18:39:16.107Z,1.8
2018-07-09T18:39:32.532Z,1.8
2018-07-09T18:39:48.962Z,1.8
2018-07-09T18:40:05.397Z,1.8
2018-07-09T18:40:21.844Z,1.8
2018-07-09T18:40:38.289Z,1.9
2018-07-09T18:40:54.724Z,1.9
2018-07-09T18:41:11.149Z,2
2018-07-09T18:41:27.578Z,1.8
2018-07-09T18:41:44.008Z,1.7
2018-07-09T18:42:00.436Z,1.6
2018-07-09T18:42:16.861Z,1.6
2018-07-09T18:42:33.294Z,1.7
2018-07-09T18:42:49.719Z,1.8
2018-07-09T18:43:06.149Z,1.8
2018-07-09T18:43:22.574Z,1.7
2018-07-09T18:43:39.002Z,1.6
2018-07-09T18:43:55.430Z,1.6
2018-07-09T18:44:11.853Z,1.7
2018-07-09T18:44:28.294Z,1.6
2018-07-09T18:44:45.717Z,1.6
2018-07-09T18:45:02.154Z,1.6
2018-07-09T18:45:18.580Z,1.5
2018-07-09T18:45:35.032Z,1.6
2018-07-09T18:45:51.462Z,1.6
2018-07-09T18:46:07.892Z,1.8
2018-07-09T18:46:24.324Z,1.7
2018-07-09T18:46:40.752Z,1.8
2018-07-09T18:46:57.198Z,1.7
2018-07-09T18:47:13.616Z,1.6
2018-07-09T18:47:30.043Z,1.7
2018-07-09T18:47:46.475Z,1.7
2018-07-09T18:48:02.932Z,1.6
2018-07-09T18:48:19.377Z,1.9
2018-07-09T18:48:35.800Z,1.8
2018-07-09T18:48:52.220Z,1.8
2018-07-09T18:49:08.651Z,1.7
2018-07-09T18:49:25.078Z,1.7
2018-07-09T18:49:41.510Z,1.6
2018-07-09T18:49:57.935Z,1.6
2018-07-09T18:50:14.364Z,1.8
2018-07-09T18:50:30.791Z,1.9
2018-07-09T18:50:47.246Z,1.9
2018-07-09T18:51:03.673Z,1.7
2018-07-09T18:51:20.087Z,1.6
2018-07-09T18:51:36.521Z,1.7
2018-07-09T18:51:52.940Z,1.6
2018-07-09T18:52:09.369Z,1.7
2018-07-09T18:52:25.794Z,1.9
2018-07-09T18:52:42.221Z,1.8
2018-07-09T18:52:58.665Z,1.7
2018-07-09T18:53:15.112Z,1.8
2018-07-09T18:53:31.538Z,1.7
2018-07-09T18:53:47.962Z,1.8
2018-07-09T18:54:04.392Z,1.8
2018-07-09T18:54:21.815Z,1.7
2018-07-09T18:54:38.262Z,1.6
2018-07-09T18:54:54.692Z,1.8
2018-07-09T18:55:11.119Z,1.9
2018-07-09T18:55:27.549Z,2
2018-07-09T18:55:44.003Z,2
2018-07-09T18:56:00.442Z,1.9
2018-07-09T18:56:16.888Z,1.7
2018-07-09T18:56:33.312Z,1.7
2018-07-09T18:56:49.750Z,1.9
2018-07-09T18:57:06.169Z,1.8
2018-07-09T18:57:22.601Z,1.7
2018-07-09T18:57:39.031Z,1.7
2018-07-09T18:57:55.463Z,1.7
2018-07-09T18:58:11.893Z,1.6
2018-07-09T18:58:28.394Z,1.7
2018-07-09T18:58:44.757Z,1.8
2018-07-09T18:59:01.196Z,2
2018-07-09T18:59:17.632Z,1.9
2018-07-09T18:59:34.105Z,1.6
2018-07-09T18:59:50.539Z,1.5
2018-07-09T19:00:06.963Z,1.6
2018-07-09T19:00:23.392Z,1.5
2018-07-09T19:00:40.820Z,1.6
2018-07-09T19:00:57.262Z,1.7
2018-07-09T19:01:13.694Z,1.6
2018-07-09T19:01:30.130Z,1.7
2018-07-09T19:01:46.558Z,1.7
2018-07-09T19:02:03.001Z,1.7
2018-07-09T19:02:19.418Z,1.6
2018-07-09T19:02:35.851Z,1.7
2018-07-09T19:02:52.279Z,1.7
2018-07-09T19:03:08.708Z,1.7
2018-07-09T19:03:25.158Z,1.5
2018-07-09T19:03:41.698Z,1.7
2018-07-09T19:03:58.121Z,1.8
2018-07-09T19:04:14.543Z,1.7
2018-07-09T19:04:30.971Z,1.8
2018-07-09T19:04:47.396Z,1.8
2018-07-09T19:05:03.824Z,1.9
2018-07-09T19:05:20.255Z,1.7
2018-07-09T19:05:36.684Z,1.7
2018-07-09T19:05:53.153Z,1.8
2018-07-09T19:06:09.581Z,1.8
2018-07-09T19:06:26.018Z,1.8
2018-07-09T19:06:42.460Z,1.9
2018-07-09T19:06:58.894Z,1.8
2018-07-09T19:07:15.318Z,1.7
2018-07-09T19:07:31.748Z,1.6
2018-07-09T19:07:48.175Z,1.5
2018-07-09T19:08:04.603Z,1.5
2018-07-09T19:08:21.021Z,1.6
2018-07-09T19:08:37.449Z,1.7
2018-07-09T19:08:53.877Z,1.8
2018-07-09T19:09:10.306Z,1.6
2018-07-09T19:09:26.736Z,1.5
2018-07-09T19:09:43.163Z,1.6
2018-07-09T19:09:59.591Z,1.6
2018-07-09T19:10:16.067Z,1.7
2018-07-09T19:10:32.567Z,1.7
2018-07-09T19:10:48.900Z,1.5
2018-07-09T19:11:05.371Z,1.7
2018-07-09T19:11:21.799Z,1.8
2018-07-09T19:11:38.226Z,1.7
2018-07-09T19:11:54.660Z,1.7
2018-07-09T19:12:11.099Z,1.6
2018-07-09T19:12:27.531Z,1.7
2018-07-09T19:12:43.967Z,1.8
2018-07-09T19:13:00.571Z,1.8
2018-07-09T19:13:17.018Z,1.7
2018-07-09T19:13:33.446Z,1.8
2018-07-09T19:13:49.876Z,1.9
2018-07-09T19:14:06.303Z,1.9
2018-07-09T19:14:23.721Z,1.9
2018-07-09T19:14:40.151Z,1.7
2018-07-09T19:14:56.577Z,1.4
2018-07-09T19:15:13.005Z,1.3
2018-07-09T19:15:29.469Z,1.5
2018-07-09T19:15:45.978Z,1.4
2018-07-09T19:16:02.371Z,1.4
2018-07-09T19:16:18.914Z,1.5
2018-07-09T19:16:35.384Z,1.7
2018-07-09T19:16:51.818Z,1.7
2018-07-09T19:17:08.265Z,1.4
2018-07-09T19:17:24.703Z,1.4
2018-07-09T19:17:41.135Z,1.4
2018-07-09T19:17:57.565Z,1.6
2018-07-09T19:18:14.227Z,1.6
2018-07-09T19:18:30.664Z,1.6
2018-07-09T19:18:47.099Z,1.7
2018-07-09T19:19:03.514Z,1.5
2018-07-09T19:19:19.968Z,1.8
2018-07-09T19:19:36.395Z,1.8
2018-07-09T19:19:52.835Z,1.8
2018-07-09T19:20:09.269Z,1.6
2018-07-09T19:20:25.697Z,1.7
2018-07-09T19:20:42.128Z,1.8
2018-07-09T19:20:58.599Z,1.8
2018-07-09T19:21:15.052Z,1.8
2018-07-09T19:21:31.492Z,1.7
2018-07-09T19:21:47.887Z,1.8
2018-07-09T19:22:04.324Z,1.8
2018-07-09T19:22:20.778Z,1.6
2018-07-09T19:22:37.205Z,1.7
2018-07-09T19:22:53.632Z,1.7
2018-07-09T19:23:10.060Z,1.6
2018-07-09T19:23:26.485Z,1.6
2018-07-09T19:23:42.912Z,1.7
2018-07-09T19:23:59.373Z,1.7
2018-07-09T19:24:15.774Z,1.7
2018-07-09T19:24:32.211Z,1.6
2018-07-09T19:24:48.645Z,1.7
2018-07-09T19:25:05.069Z,1.9
2018-07-09T19:25:21.496Z,1.9
2018-07-09T19:25:37.926Z,1.8
2018-07-09T19:25:54.350Z,1.8
2018-07-09T19:26:10.794Z,1.8
2018-07-09T19:26:27.217Z,1.7
2018-07-09T19:26:43.649Z,1.7
2018-07-09T19:27:00.077Z,1.7
2018-07-09T19:27:16.509Z,1.8
2018-07-09T19:27:32.945Z,1.8
2018-07-09T19:27:50.365Z,1.8
2018-07-09T19:28:06.799Z,1.7
2018-07-09T19:28:23.308Z,1.5
2018-07-09T19:28:39.651Z,1.5
2018-07-09T19:28:56.085Z,1.7
2018-07-09T19:29:12.521Z,1.8
2018-07-09T19:29:28.951Z,1.8
2018-07-09T19:29:45.408Z,1.8
2018-07-09T19:30:01.845Z,1.7
2018-07-09T19:30:18.307Z,1.5
2018-07-09T19:30:34.742Z,1.7
2018-07-09T19:30:51.181Z,1.9
2018-07-09T19:31:07.644Z,1.9
2018-07-09T19:31:24.071Z,1.8
2018-07-09T19:31:40.497Z,1.9
2018-07-09T19:31:56.962Z,1.9
2018-07-09T19:32:13.371Z,2
2018-07-09T19:32:29.809Z,2.1
2018-07-09T19:32:46.230Z,2.1
2018-07-09T19:33:02.666Z,2
2018-07-09T19:33:19.117Z,2
2018-07-09T19:33:35.547Z,2
2018-07-09T19:33:51.986Z,2
2018-07-09T19:34:08.489Z,1.9
2018-07-09T19:34:24.842Z,2
2018-07-09T19:34:41.283Z,2
2018-07-09T19:34:57.714Z,2
2018-07-09T19:35:14.153Z,1.9
2018-07-09T19:35:30.620Z,1.9
2018-07-09T19:35:47.021Z,1.9
2018-07-09T19:36:03.461Z,1.8
2018-07-09T19:36:19.948Z,2
2018-07-09T19:36:36.451Z,1.9
2018-07-09T19:36:52.901Z,1.9
2018-07-09T19:37:09.336Z,2.1
2018-07-09T19:37:25.859Z,2.2
2018-07-09T19:37:42.427Z,2.2
2018-07-09T19:37:58.946Z,2
2018-07-09T19:38:14.960Z,1.9
2018-07-09T19:38:31.403Z,1.9
2018-07-09T19:38:47.816Z,1.8
2018-07-09T19:39:04.244Z,1.9
2018-07-09T19:39:20.679Z,2
2018-07-09T19:39:37.112Z,1.9
2018-07-09T19:39:53.534Z,1.9
2018-07-09T19:40:09.961Z,2
2018-07-09T19:40:26.388Z,2
2018-07-09T19:40:42.816Z,2.1
2018-07-09T19:40:59.245Z,2.2
2018-07-09T19:41:15.696Z,2.1
2018-07-09T19:41:32.149Z,1.9
2018-07-09T19:41:48.675Z,1.9
2018-07-09T19:42:04.988Z,1.9
2018-07-09T19:42:21.424Z,1.9
2018-07-09T19:42:37.850Z,1.9
2018-07-09T19:42:54.275Z,2
2018-07-09T19:43:10.709Z,2.2
2018-07-09T19:43:27.158Z,2.2
2018-07-09T19:43:43.615Z,2.2
2018-07-09T19:44:00.062Z,2.1
2018-07-09T19:44:16.491Z,2.2
2018-07-09T19:44:32.924Z,2.2
2018-07-09T19:44:49.354Z,2.1
2018-07-09T19:45:05.800Z,2.1
2018-07-09T19:45:22.235Z,2.2
2018-07-09T19:45:38.705Z,2
2018-07-09T19:45:55.097Z,2
2018-07-09T19:46:11.528Z,2
2018-07-09T19:46:27.970Z,1.9
2018-07-09T19:46:44.397Z,1.9
2018-07-09T19:47:00.824Z,2
2018-07-09T19:47:17.267Z,2
2018-07-09T19:47:33.686Z,2
2018-07-09T19:47:50.190Z,2
2018-07-09T19:48:06.544Z,2
2018-07-09T19:48:22.977Z,2
2018-07-09T19:48:39.408Z,2.1
2018-07-09T19:48:55.842Z,2.1
2018-07-09T19:49:12.303Z,2.2
2018-07-09T19:49:28.728Z,2.2
2018-07-09T19:49:45.159Z,2
2018-07-09T19:50:01.592Z,2
2018-07-09T19:50:18.037Z,2.1
2018-07-09T19:50:34.469Z,2.1
2018-07-09T19:50:50.896Z,1.9
2018-07-09T19:51:07.341Z,1.9
2018-07-09T19:51:23.798Z,1.8
2018-07-09T19:51:40.227Z,1.8
2018-07-09T19:51:56.656Z,1.9
2018-07-09T19:52:13.089Z,1.9
2018-07-09T19:52:29.517Z,2
2018-07-09T19:52:45.977Z,2.1
2018-07-09T19:53:02.432Z,2
2018-07-09T19:53:18.876Z,2
2018-07-09T19:53:35.303Z,2
2018-07-09T19:53:51.741Z,2
2018-07-09T19:54:08.177Z,2
2018-07-09T19:54:24.610Z,2
2018-07-09T19:54:41.039Z,2
2018-07-09T19:54:57.499Z,2.2
2018-07-09T19:55:13.904Z,2.2
2018-07-09T19:55:30.331Z,2
2018-07-09T19:55:46.758Z,1.9
2018-07-09T19:56:03.193Z,2
2018-07-09T19:56:19.627Z,2
2018-07-09T19:56:36.085Z,2.1
2018-07-09T19:56:52.512Z,2
2018-07-09T19:57:08.945Z,2
2018-07-09T19:57:25.373Z,1.8
2018-07-09T19:57:41.812Z,1.8
2018-07-09T19:57:58.240Z,2
2018-07-09T19:58:14.677Z,1.9
2018-07-09T19:58:31.103Z,1.9
2018-07-09T19:58:47.546Z,2.1
2018-07-09T19:59:03.986Z,1.9
2018-07-09T19:59:20.418Z,1.9
2018-07-09T19:59:36.846Z,1.9
2018-07-09T19:59:53.274Z,1.9
2018-07-09T20:00:09.710Z,1.9
2018-07-09T20:00:26.148Z,2
2018-07-09T20:00:42.579Z,1.9
2018-07-09T20:00:59.009Z,1.9
2018-07-09T20:01:15.442Z,1.9
2018-07-09T20:01:31.894Z,1.8
2018-07-09T20:01:48.332Z,1.8
2018-07-09T20:02:04.759Z,1.9
2018-07-09T20:02:21.188Z,2.1
2018-07-09T20:02:37.614Z,2.1
2018-07-09T20:02:54.049Z,2
2018-07-09T20:03:10.481Z,1.9
2018-07-09T20:03:26.915Z,1.9
2018-07-09T20:03:43.340Z,2
2018-07-09T20:03:59.766Z,1.9
2018-07-09T20:04:16.200Z,1.8
2018-07-09T20:04:32.632Z,1.8
2018-07-09T20:04:49.062Z,1.9
2018-07-09T20:05:05.518Z,2
2018-07-09T20:05:21.922Z,2.1
2018-07-09T20:05:38.349Z,2
2018-07-09T20:05:54.781Z,2
2018-07-09T20:06:12.202Z,1.9
2018-07-09T20:06:28.631Z,1.8
2018-07-09T20:06:45.082Z,1.7
2018-07-09T20:07:01.509Z,1.7
2018-07-09T20:07:17.946Z,1.9
2018-07-09T20:07:34.376Z,2.1
2018-07-09T20:07:50.812Z,2
2018-07-09T20:08:07.239Z,2
2018-07-09T20:08:23.675Z,2.1
2018-07-09T20:08:40.154Z,2.1
2018-07-09T20:08:56.725Z,2
2018-07-09T20:09:12.972Z,1.9
2018-07-09T20:09:29.404Z,2
2018-07-09T20:09:45.832Z,2.2
2018-07-09T20:10:02.260Z,2.1
2018-07-09T20:10:18.689Z,2.1
2018-07-09T20:10:35.116Z,2.1
2018-07-09T20:10:51.553Z,2
2018-07-09T20:11:08.004Z,2
2018-07-09T20:11:24.438Z,2.2
2018-07-09T20:11:40.868Z,2.2
2018-07-09T20:11:57.310Z,2.1
2018-07-09T20:12:13.745Z,2.1
2018-07-09T20:12:30.173Z,2.1
2018-07-09T20:12:46.599Z,2.1
2018-07-09T20:13:03.035Z,2.1
2018-07-09T20:13:19.471Z,2.2
2018-07-09T20:13:35.922Z,2.1
2018-07-09T20:13:52.351Z,2
2018-07-09T20:14:08.781Z,2.1
2018-07-09T20:14:25.209Z,2.2
2018-07-09T20:14:41.643Z,2
2018-07-09T20:14:58.074Z,1.9
2018-07-09T20:15:14.544Z,1.9
2018-07-09T20:15:30.936Z,2
2018-07-09T20:15:47.368Z,2
2018-07-09T20:16:03.800Z,1.9
2018-07-09T20:16:20.239Z,2.1
2018-07-09T20:16:36.668Z,2.2
2018-07-09T20:16:53.095Z,2.2
2018-07-09T20:17:09.534Z,2.2
2018-07-09T20:17:25.970Z,2.2
2018-07-09T20:17:42.399Z,2.2
2018-07-09T20:17:58.833Z,2.4
2018-07-09T20:18:15.267Z,2.1
2018-07-09T20:18:31.707Z,2
2018-07-09T20:18:48.139Z,2
2018-07-09T20:19:04.568Z,2.1
2018-07-09T20:19:21.009Z,2
2018-07-09T20:19:37.438Z,2.1
2018-07-09T20:19:53.876Z,2.2
2018-07-09T20:20:10.305Z,2
2018-07-09T20:20:26.734Z,2.1
2018-07-09T20:20:43.226Z,2.3
2018-07-09T20:20:59.603Z,2.2
2018-07-09T20:21:16.058Z,2.2
2018-07-09T20:21:32.489Z,2.2
2018-07-09T20:21:48.914Z,2.2
2018-07-09T20:22:05.345Z,2.3
2018-07-09T20:22:21.771Z,2.4
2018-07-09T20:22:38.203Z,2
2018-07-09T20:22:54.633Z,2
2018-07-09T20:23:11.071Z,2.1
2018-07-09T20:23:27.501Z,2.3
2018-07-09T20:23:43.935Z,2.6
2018-07-09T20:24:00.365Z,2.4
2018-07-09T20:24:16.795Z,2.2
2018-07-09T20:24:33.232Z,2.4
2018-07-09T20:24:49.661Z,2.4
2018-07-09T20:25:06.091Z,2.3
2018-07-09T20:25:22.523Z,2.5
2018-07-09T20:25:38.960Z,2.6
2018-07-09T20:25:55.389Z,2.3
2018-07-09T20:26:12.811Z,2.3
2018-07-09T20:26:29.275Z,2.4
2018-07-09T20:26:45.710Z,2.4
2018-07-09T20:27:02.168Z,2.4
2018-07-09T20:27:18.569Z,2.2
2018-07-09T20:27:34.997Z,2.4
2018-07-09T20:27:51.428Z,2.4
2018-07-09T20:28:07.864Z,2.4
2018-07-09T20:28:24.293Z,2.4
2018-07-09T20:28:40.725Z,2.5
2018-07-09T20:28:57.157Z,2.4
2018-07-09T20:29:13.585Z,2.4
2018-07-09T20:29:30.013Z,2.3
2018-07-09T20:29:46.440Z,2.2
2018-07-09T20:30:02.869Z,2.2
2018-07-09T20:30:19.298Z,2.2
2018-07-09T20:30:35.728Z,2.5
2018-07-09T20:30:52.178Z,2.4
2018-07-09T20:31:08.610Z,2.4
2018-07-09T20:31:25.071Z,2.4
2018-07-09T20:31:41.493Z,2.3
2018-07-09T20:31:57.920Z,2.4
2018-07-09T20:32:14.403Z,2.5
2018-07-09T20:32:30.792Z,2.3
2018-07-09T20:32:47.237Z,2.2
2018-07-09T20:33:03.660Z,2.3
2018-07-09T20:33:20.088Z,2.3
2018-07-09T20:33:36.515Z,2.2
2018-07-09T20:33:52.943Z,2.3
2018-07-09T20:34:09.375Z,2.4
2018-07-09T20:34:25.806Z,2.4
2018-07-09T20:34:43.227Z,2.4
2018-07-09T20:34:59.656Z,2.4
2018-07-09T20:35:16.081Z,2.2
2018-07-09T20:35:32.509Z,2.4
2018-07-09T20:35:48.938Z,2.5
2018-07-09T20:36:05.383Z,2.4
2018-07-09T20:36:21.812Z,2.4
2018-07-09T20:36:38.255Z,2.3
2018-07-09T20:36:54.683Z,2.3
2018-07-09T20:37:12.103Z,2.2
2018-07-09T20:37:28.533Z,2.3
2018-07-09T20:37:44.969Z,2.3
2018-07-09T20:38:01.401Z,2.4
2018-07-09T20:38:17.824Z,2.4
2018-07-09T20:38:35.244Z,2.4
2018-07-09T20:38:51.678Z,2.6
2018-07-09T20:39:08.106Z,2.4
2018-07-09T20:39:24.536Z,2.6
2018-07-09T20:39:40.971Z,2.8
2018-07-09T20:39:57.450Z,2.7
2018-07-09T20:40:13.828Z,2.5
2018-07-09T20:40:30.254Z,2.3
2018-07-09T20:40:46.686Z,2.2
2018-07-09T20:41:03.132Z,2.4
2018-07-09T20:41:19.562Z,2.3
2018-07-09T20:41:36.006Z,2.2
2018-07-09T20:41:52.438Z,2.2
2018-07-09T20:42:08.864Z,2.2
2018-07-09T20:42:25.309Z,2.2
2018-07-09T20:42:41.741Z,2.3
2018-07-09T20:42:58.179Z,2.3
2018-07-09T20:43:14.612Z,2.2
2018-07-09T20:43:31.039Z,2.1
2018-07-09T20:43:47.482Z,2.2
2018-07-09T20:44:03.914Z,2.4
2018-07-09T20:44:20.346Z,2.3
2018-07-09T20:44:36.782Z,2
2018-07-09T20:44:53.215Z,2.2
2018-07-09T20:45:09.650Z,2.2
2018-07-09T20:45:26.078Z,2.4
2018-07-09T20:45:42.555Z,2.3
2018-07-09T20:45:58.940Z,2.3
2018-07-09T20:46:15.374Z,2.2
2018-07-09T20:46:31.824Z,2.1
2018-07-09T20:46:48.253Z,2.3
2018-07-09T20:47:04.682Z,2.3
2018-07-09T20:47:21.120Z,2.4
2018-07-09T20:47:37.544Z,2.4
2018-07-09T20:47:53.986Z,2.4
2018-07-09T20:48:10.412Z,2.5
2018-07-09T20:48:26.841Z,2.4
2018-07-09T20:48:43.271Z,2.5
2018-07-09T20:48:59.698Z,2.5
2018-07-09T20:49:16.129Z,2.5
2018-07-09T20:49:32.558Z,2.5
2018-07-09T20:49:48.995Z,2.4
2018-07-09T20:50:05.425Z,2.3
2018-07-09T20:50:21.852Z,2.4
2018-07-09T20:50:38.275Z,2.4
2018-07-09T20:50:54.704Z,2.4
2018-07-09T20:51:12.128Z,2.4
2018-07-09T20:51:28.557Z,2.5
2018-07-09T20:51:46.016Z,2.4
2018-07-09T20:52:02.446Z,2.6
2018-07-09T20:52:18.895Z,2.7
2018-07-09T20:52:35.330Z,2.9
2018-07-09T20:52:51.762Z,3
2018-07-09T20:53:08.197Z,2.7
2018-07-09T20:53:24.621Z,2.4